Time;durP1;ratioP1;P1;durP2;ratioP2;P2;SDS_P1;SDS_P2;PMS_P1;PMS_P2;Temp;Humidity;BMP_temperature;BMP_pressure;BME280_temperature;BME280_humidity;BME280_pressure;Samples;Min_cycle;Max_cycle;Signal;HPM_P1;HPM_P2
2022/10/08 00:00:45;;;;;;;3.27;2.03;;;11.00;97.30;;;;;;5083039;28;20480;-83
2022/10/08 00:03:14;;;;;;;3.27;2.90;;;11.00;97.30;;;;;;5078043;28;20513;-84
2022/10/08 00:05:40;;;;;;;1.90;1.70;;;11.00;97.30;;;;;;5093542;28;20459;-80
2022/10/08 00:08:07;;;;;;;5.07;2.00;;;10.90;97.30;;;;;;5081324;28;20497;-84
2022/10/08 00:10:33;;;;;;;2.30;2.13;;;10.90;97.30;;;;;;5093296;28;20206;-80
2022/10/08 00:13:00;;;;;;;2.47;2.30;;;10.90;97.30;;;;;;5088814;28;20892;-79
2022/10/08 00:15:26;;;;;;;3.50;2.70;;;10.90;97.30;;;;;;5086129;28;20438;-86
2022/10/08 00:17:51;;;;;;;1.40;1.30;;;10.90;97.30;;;;;;5092998;28;20722;-79
2022/10/08 00:20:17;;;;;;;1.70;1.63;;;10.90;97.30;;;;;;5093027;28;20197;-84
2022/10/08 00:22:43;;;;;;;3.47;2.37;;;10.90;97.30;;;;;;5074814;28;20469;-84
2022/10/08 00:25:09;;;;;;;2.37;2.20;;;10.90;97.30;;;;;;5074244;28;20500;-85
2022/10/08 00:27:35;;;;;;;2.93;2.43;;;10.90;97.30;;;;;;5091968;28;20178;-84
2022/10/08 00:30:02;;;;;;;4.67;2.33;;;10.90;97.30;;;;;;5080678;28;20195;-84
2022/10/08 00:32:28;;;;;;;4.10;3.87;;;10.90;97.30;;;;;;5086786;28;20500;-80
2022/10/08 00:34:53;;;;;;;2.80;2.13;;;10.90;97.30;;;;;;5087106;28;20838;-80
2022/10/08 00:37:19;;;;;;;2.40;2.20;;;10.90;97.30;;;;;;5092798;28;20178;-81
2022/10/08 00:39:45;;;;;;;2.63;2.10;;;10.90;97.30;;;;;;5081195;28;20207;-85
2022/10/08 00:42:11;;;;;;;2.23;1.90;;;10.90;97.30;;;;;;5078314;28;20186;-82
2022/10/08 00:44:46;;;;;;;1.87;1.77;;;10.80;97.30;;;;;;5092725;28;20171;-83
2022/10/08 00:47:32;;;;;;;3.97;2.50;;;10.80;97.30;;;;;;5073023;28;20468;-83
2022/10/08 00:50:24;;;;;;;2.70;2.50;;;10.80;97.30;;;;;;5085508;28;20423;-86
2022/10/08 00:52:57;;;;;;;22.63;3.53;;;10.80;97.30;;;;;;5086567;28;20432;-79
2022/10/08 00:55:26;;;;;;;4.90;1.80;;;10.80;97.30;;;;;;5079957;28;20420;-80
2022/10/08 00:57:52;;;;;;;1.73;1.63;;;10.80;97.30;;;;;;5092204;28;20416;-82
2022/10/08 01:00:24;;;;;;;6.17;2.70;;;10.80;97.30;;;;;;5092633;28;20479;-83
2022/10/08 01:02:51;;;;;;;3.63;3.20;;;10.80;97.30;;;;;;5091228;28;20243;-85
2022/10/08 01:05:24;;;;;;;3.70;1.83;;;10.80;97.30;;;;;;5092445;28;20408;-84
2022/10/08 01:07:58;;;;;;;4.77;2.07;;;10.80;97.30;;;;;;5079140;28;20432;-85
2022/10/08 01:10:39;;;;;;;2.00;1.80;;;10.80;97.30;;;;;;5092594;28;20433;-84
2022/10/08 01:13:18;;;;;;;1.77;1.67;;;10.80;97.30;;;;;;5093822;28;20431;-79
2022/10/08 01:16:20;;;;;;;2.53;2.40;;;10.80;97.30;;;;;;5088457;28;20962;-84
2022/10/08 01:19:17;;;;;;;1.67;1.63;;;10.80;97.30;;;;;;5079227;28;20492;-84
2022/10/08 01:22:17;;;;;;;8.10;2.47;;;10.70;97.30;;;;;;5072001;28;20456;-85
2022/10/08 01:27:35;;;;;;;1.90;1.40;;;10.70;97.30;;;;;;5080176;28;20492;-80
2022/10/08 01:30:05;;;;;;;2.27;2.00;;;10.70;97.30;;;;;;5079057;28;20441;-83
2022/10/08 01:32:39;;;;;;;2.60;2.00;;;10.70;97.30;;;;;;5090600;28;20780;-84
2022/10/08 01:35:11;;;;;;;3.20;2.57;;;10.70;97.30;;;;;;5092229;28;20782;-84
2022/10/08 01:37:40;;;;;;;2.60;1.67;;;10.70;97.30;;;;;;5093233;28;20948;-83
2022/10/08 01:40:15;;;;;;;1.63;1.57;;;10.60;97.30;;;;;;5077233;28;20807;-84
2022/10/08 01:42:41;;;;;;;7.13;2.33;;;10.60;97.30;;;;;;5084092;28;20447;-81
2022/10/08 01:45:11;;;;;;;3.93;2.20;;;10.60;97.30;;;;;;5075874;28;20933;-80
2022/10/08 01:47:39;;;;;;;13.63;4.10;;;10.60;97.30;;;;;;5083598;28;20224;-85
2022/10/08 01:50:27;;;;;;;3.47;2.33;;;10.60;97.30;;;;;;5089371;28;20525;-84
2022/10/08 01:52:57;;;;;;;6.57;4.00;;;10.60;97.30;;;;;;5091580;28;20424;-84
2022/10/08 01:55:38;;;;;;;4.17;3.07;;;10.60;97.30;;;;;;5092935;28;20508;-85
2022/10/08 01:58:46;;;;;;;8.23;3.47;;;10.60;97.30;;;;;;5075042;28;20432;-83
2022/10/08 02:01:17;;;;;;;4.00;2.60;;;10.70;97.30;;;;;;5076665;28;20966;-83
2022/10/08 02:04:31;;;;;;;5.90;2.90;;;10.70;97.30;;;;;;5091263;28;20462;-84
2022/10/08 02:06:31;;;;;;;5.17;3.10;;;10.70;97.30;;;;;;5087166;28;20480;-82
2022/10/08 02:08:57;;;;;;;2.77;2.57;;;10.70;97.30;;;;;;5071461;28;20505;-84
2022/10/08 02:11:23;;;;;;;1.90;1.83;;;10.70;97.30;;;;;;5077788;28;20428;-79
2022/10/08 02:13:48;;;;;;;3.00;2.10;;;10.70;97.30;;;;;;5091723;28;20174;-84
2022/10/08 02:16:28;;;;;;;1.63;1.53;;;10.70;97.30;;;;;;5081780;28;20691;-78
2022/10/08 02:19:10;;;;;;;2.57;2.30;;;10.70;97.30;;;;;;5089453;28;20169;-80
2022/10/08 02:21:38;;;;;;;3.87;3.30;;;10.70;97.30;;;;;;5090506;28;20452;-82
2022/10/08 02:24:20;;;;;;;3.67;2.87;;;10.70;97.30;;;;;;5080705;28;20428;-84
2022/10/08 02:26:55;;;;;;;2.03;1.80;;;10.70;97.30;;;;;;5080951;28;20420;-79
2022/10/08 02:29:32;;;;;;;3.07;2.87;;;10.70;97.30;;;;;;5090373;28;20428;-83
2022/10/08 02:32:28;;;;;;;1.93;1.70;;;10.70;97.30;;;;;;5090434;28;20432;-84
2022/10/08 02:35:26;;;;;;;1.97;1.90;;;10.80;97.30;;;;;;5083933;28;20472;-83
2022/10/08 02:37:58;;;;;;;2.67;2.47;;;10.80;97.30;;;;;;5070895;28;20944;-80
2022/10/08 02:40:26;;;;;;;5.10;2.43;;;10.80;97.30;;;;;;5084126;28;20884;-85
2022/10/08 02:42:56;;;;;;;3.17;2.50;;;10.80;97.30;;;;;;5070528;28;20488;-84
2022/10/08 02:45:29;;;;;;;3.90;1.80;;;10.80;97.30;;;;;;5074941;28;20458;-82
2022/10/08 02:48:10;;;;;;;2.07;1.50;;;10.80;97.30;;;;;;5078490;28;20445;-84
2022/10/08 02:50:40;;;;;;;1.90;1.80;;;10.80;97.30;;;;;;5084021;28;20428;-84
2022/10/08 02:53:06;;;;;;;2.80;1.60;;;10.80;97.30;;;;;;5078471;28;20499;-84
2022/10/08 02:55:45;;;;;;;3.53;2.40;;;10.80;97.30;;;;;;5090338;28;20961;-83
2022/10/08 02:58:12;;;;;;;11.60;3.10;;;10.80;97.30;;;;;;5091164;28;20573;-78
2022/10/08 03:00:50;;;;;;;3.30;2.63;;;10.90;97.30;;;;;;5091507;28;20969;-83
2022/10/08 03:03:30;;;;;;;2.10;1.77;;;10.90;97.30;;;;;;5090107;28;20532;-84
2022/10/08 03:06:01;;;;;;;1.60;1.60;;;10.90;97.30;;;;;;5083566;28;20413;-83
2022/10/08 03:08:28;;;;;;;2.07;1.97;;;10.90;97.30;;;;;;5084669;28;20575;-83
2022/10/08 03:10:54;;;;;;;3.70;2.23;;;10.90;97.30;;;;;;5090857;28;20519;-83
2022/10/08 03:13:22;;;;;;;5.03;3.20;;;10.90;97.30;;;;;;5077910;28;20424;-82
2022/10/08 03:15:52;;;;;;;3.83;2.43;;;10.90;97.30;;;;;;5073678;28;20484;-83
2022/10/08 03:18:19;;;;;;;4.60;2.20;;;10.90;97.30;;;;;;5084442;28;20434;-79
2022/10/08 03:20:48;;;;;;;3.77;1.70;;;10.90;97.30;;;;;;5079309;28;20452;-81
2022/10/08 03:23:16;;;;;;;1.67;1.57;;;11.00;97.30;;;;;;5077260;28;20448;-83
2022/10/08 03:25:42;;;;;;;1.80;1.70;;;11.00;97.30;;;;;;5069612;28;20417;-83
2022/10/08 03:28:08;;;;;;;2.57;1.50;;;11.00;97.30;;;;;;5084070;28;20417;-80
2022/10/08 03:30:34;;;;;;;3.07;2.30;;;11.00;97.30;;;;;;5078926;28;20186;-83
2022/10/08 03:32:59;;;;;;;3.90;1.70;;;11.00;97.30;;;;;;5089774;28;20178;-83
2022/10/08 03:35:25;;;;;;;2.57;2.10;;;11.00;97.30;;;;;;5090142;28;20459;-83
2022/10/08 03:37:52;;;;;;;2.30;2.10;;;11.00;97.30;;;;;;5088299;28;20208;-83
2022/10/08 03:40:18;;;;;;;7.47;3.40;;;11.00;97.30;;;;;;5078722;28;20198;-81
2022/10/08 03:42:44;;;;;;;3.30;2.83;;;11.00;97.30;;;;;;5088936;28;20513;-85
2022/10/08 03:45:09;;;;;;;3.00;2.37;;;11.00;97.30;;;;;;5071187;28;20830;-83
2022/10/08 03:47:35;;;;;;;2.33;1.83;;;11.00;97.30;;;;;;5083108;28;20175;-84
2022/10/08 03:50:01;;;;;;;4.00;2.40;;;11.00;97.30;;;;;;5078621;28;20596;-84
2022/10/08 03:52:28;;;;;;;2.30;2.10;;;11.00;97.30;;;;;;5076536;28;20187;-85
2022/10/08 03:54:53;;;;;;;21.30;3.17;;;11.10;97.30;;;;;;5091364;28;20251;-80
2022/10/08 03:57:19;;;;;;;1.63;1.57;;;11.00;97.30;;;;;;5089792;28;20899;-84
2022/10/08 03:59:44;;;;;;;2.50;2.20;;;11.00;97.30;;;;;;5080624;28;20567;-83
2022/10/08 04:02:10;;;;;;;4.30;2.20;;;11.00;97.30;;;;;;5085334;28;20197;-84
2022/10/08 04:04:35;;;;;;;50.20;3.43;;;11.00;97.30;;;;;;5089292;28;20177;-81
2022/10/08 04:07:01;;;;;;;3.70;2.30;;;11.00;97.30;;;;;;5088968;28;20171;-82
2022/10/08 04:09:27;;;;;;;2.40;1.93;;;11.00;97.30;;;;;;5090119;28;20357;-84
2022/10/08 04:11:52;;;;;;;1.70;1.60;;;11.10;97.30;;;;;;5086421;28;20216;-81
2022/10/08 04:14:18;;;;;;;3.47;2.07;;;11.10;97.30;;;;;;5085591;28;20350;-84
2022/10/08 04:16:43;;;;;;;1.97;1.80;;;11.10;97.30;;;;;;5088587;28;20175;-81
2022/10/08 04:19:13;;;;;;;2.80;2.30;;;11.10;97.30;;;;;;5087897;28;20250;-84
2022/10/08 04:21:38;;;;;;;3.47;1.93;;;11.10;97.30;;;;;;5086596;28;20692;-84
2022/10/08 04:24:04;;;;;;;4.23;2.77;;;11.00;97.30;;;;;;5088403;28;20467;-84
2022/10/08 04:26:29;;;;;;;4.17;2.83;;;11.00;97.30;;;;;;5090148;28;20199;-83
2022/10/08 04:28:55;;;;;;;5.07;2.30;;;11.00;97.30;;;;;;5087020;28;20641;-84
2022/10/08 04:31:22;;;;;;;4.10;3.90;;;11.10;97.30;;;;;;5079434;28;20198;-81
2022/10/08 04:33:49;;;;;;;2.20;1.83;;;11.00;97.30;;;;;;5088835;28;20228;-83
2022/10/08 04:36:23;;;;;;;5.30;2.40;;;11.00;97.30;;;;;;5084669;28;20757;-81
2022/10/08 04:38:49;;;;;;;3.87;3.20;;;11.00;97.30;;;;;;5088012;28;20424;-81
2022/10/08 04:41:17;;;;;;;4.00;1.83;;;11.10;97.30;;;;;;5088758;28;20504;-79
2022/10/08 04:43:44;;;;;;;5.90;1.97;;;11.10;97.30;;;;;;5087737;28;20555;-83
2022/10/08 04:46:13;;;;;;;2.03;1.90;;;11.10;97.30;;;;;;5087224;28;20428;-83
2022/10/08 04:48:43;;;;;;;3.83;2.07;;;11.10;97.30;;;;;;5089735;28;20794;-80
2022/10/08 04:51:09;;;;;;;3.40;2.80;;;11.10;97.30;;;;;;5091439;28;20436;-83
2022/10/08 04:53:35;;;;;;;3.60;3.07;;;11.10;97.30;;;;;;5088806;28;20421;-80
2022/10/08 04:56:13;;;;;;;3.10;1.97;;;11.10;97.30;;;;;;5088725;28;20179;-81
2022/10/08 04:58:39;;;;;;;2.73;2.47;;;11.20;97.30;;;;;;5090395;28;20587;-84
2022/10/08 05:01:06;;;;;;;2.70;1.77;;;11.20;97.30;;;;;;5089712;28;20441;-82
2022/10/08 05:03:42;;;;;;;3.20;3.00;;;11.20;97.30;;;;;;5089215;28;20455;-84
2022/10/08 05:06:13;;;;;;;15.17;3.10;;;11.30;97.30;;;;;;5092020;28;20405;-81
2022/10/08 05:08:39;;;;;;;2.23;1.70;;;11.30;97.30;;;;;;5093254;28;20416;-84
2022/10/08 05:11:05;;;;;;;5.83;2.20;;;11.40;97.30;;;;;;5093983;28;20791;-84
2022/10/08 05:13:30;;;;;;;2.60;2.27;;;11.40;97.30;;;;;;5094904;28;20178;-81
2022/10/08 05:16:05;;;;;;;17.50;5.47;;;11.50;97.30;;;;;;5107782;28;20412;-84
2022/10/08 05:18:32;;;;;;;2.17;2.00;;;11.50;97.30;;;;;;5089335;28;20175;-80
2022/10/08 05:21:11;;;;;;;2.60;1.80;;;11.50;97.30;;;;;;5089205;28;20460;-84
2022/10/08 05:23:38;;;;;;;2.03;1.83;;;11.60;97.30;;;;;;5093898;28;20448;-83
2022/10/08 05:26:18;;;;;;;2.77;2.57;;;11.60;97.30;;;;;;5090778;28;20412;-82
2022/10/08 05:28:48;;;;;;;5.53;2.27;;;11.60;97.30;;;;;;5093278;28;20934;-83
2022/10/08 05:31:14;;;;;;;4.77;3.50;;;11.70;97.30;;;;;;5093003;28;20431;-84
2022/10/08 05:33:40;;;;;;;1.90;1.60;;;11.70;97.30;;;;;;5094300;28;20507;-84
2022/10/08 05:36:09;;;;;;;3.20;2.30;;;11.70;97.30;;;;;;5093699;28;20449;-82
2022/10/08 05:38:35;;;;;;;3.90;2.53;;;11.70;97.30;;;;;;5087436;28;20363;-81
2022/10/08 05:41:15;;;;;;;3.10;2.70;;;11.80;97.30;;;;;;5090566;28;20437;-83
2022/10/08 05:43:41;;;;;;;3.73;2.00;;;11.80;97.30;;;;;;5086121;28;20294;-81
2022/10/08 05:46:07;;;;;;;5.30;3.37;;;11.80;97.30;;;;;;5087886;28;20923;-79
2022/10/08 05:48:33;;;;;;;44.67;2.73;;;11.90;97.30;;;;;;5092350;28;20781;-84
2022/10/08 05:51:10;;;;;;;7.83;3.73;;;12.00;97.30;;;;;;5089962;28;20448;-81
2022/10/08 05:53:39;;;;;;;2.70;1.80;;;12.00;97.30;;;;;;5090841;28;20504;-84
2022/10/08 05:56:06;;;;;;;3.63;2.40;;;12.00;97.30;;;;;;5082173;28;20942;-81
2022/10/08 05:58:33;;;;;;;3.50;2.37;;;12.10;97.30;;;;;;5085709;28;20449;-83
2022/10/08 06:01:01;;;;;;;13.33;3.33;;;12.10;97.30;;;;;;5088730;28;20988;-82
2022/10/08 06:03:27;;;;;;;6.93;3.53;;;12.10;97.30;;;;;;5087725;28;20454;-81
2022/10/08 06:05:56;;;;;;;3.20;2.33;;;12.20;97.30;;;;;;5085700;28;20525;-84
2022/10/08 06:08:22;;;;;;;1.63;1.53;;;12.20;97.30;;;;;;5076328;28;20432;-80
2022/10/08 06:10:52;;;;;;;3.77;1.93;;;12.20;97.30;;;;;;5077997;28;20429;-84
2022/10/08 06:13:19;;;;;;;6.93;2.27;;;12.20;97.30;;;;;;5092322;28;20177;-84
2022/10/08 06:16:05;;;;;;;1.63;1.53;;;12.30;97.30;;;;;;5091805;28;20435;-83
2022/10/08 06:18:33;;;;;;;4.70;2.53;;;12.30;97.30;;;;;;5074227;28;20422;-79
2022/10/08 06:21:08;;;;;;;3.23;2.93;;;12.30;97.30;;;;;;5073776;28;20479;-79
2022/10/08 06:23:36;;;;;;;2.43;2.23;;;12.30;97.30;;;;;;5095094;28;20498;-84
2022/10/08 06:26:08;;;;;;;3.70;2.87;;;12.30;97.30;;;;;;5083025;28;20559;-84
2022/10/08 06:28:35;;;;;;;1.70;1.57;;;12.30;97.30;;;;;;5090279;28;20831;-84
2022/10/08 06:31:01;;;;;;;3.50;2.90;;;12.30;97.30;;;;;;5088407;28;20536;-80
2022/10/08 06:33:27;;;;;;;6.50;3.00;;;12.40;97.30;;;;;;5084786;28;21095;-84
2022/10/08 06:35:53;;;;;;;4.77;1.90;;;12.40;97.30;;;;;;5086768;28;20421;-84
2022/10/08 06:38:19;;;;;;;2.30;1.80;;;12.40;97.30;;;;;;5083714;28;20868;-83
2022/10/08 06:40:45;;;;;;;3.63;3.03;;;12.50;97.30;;;;;;5085067;28;20198;-82
2022/10/08 06:43:18;;;;;;;3.13;1.80;;;12.50;97.30;;;;;;5092229;28;20987;-80
2022/10/08 06:45:47;;;;;;;2.97;2.77;;;12.60;97.30;;;;;;5087174;28;20171;-80
2022/10/08 06:48:13;;;;;;;2.53;1.50;;;12.60;97.30;;;;;;5090426;28;20969;-80
2022/10/08 06:50:39;;;;;;;2.10;1.83;;;12.70;97.30;;;;;;5088588;28;20444;-84
2022/10/08 06:53:06;;;;;;;6.13;2.40;;;12.80;97.30;;;;;;5092564;28;20183;-86
2022/10/08 06:55:33;;;;;;;3.53;1.80;;;12.80;97.30;;;;;;5090718;28;20412;-84
2022/10/08 06:58:00;;;;;;;2.60;1.50;;;12.90;97.30;;;;;;5090787;28;20424;-81
2022/10/08 07:00:25;;;;;;;3.67;2.37;;;13.00;97.30;;;;;;5089662;28;20451;-83
2022/10/08 07:02:51;;;;;;;4.20;1.97;;;13.00;97.30;;;;;;5089377;28;20468;-86
2022/10/08 07:05:17;;;;;;;2.53;1.90;;;13.10;97.30;;;;;;5086860;28;20646;-85
2022/10/08 07:07:43;;;;;;;3.00;2.50;;;13.10;97.30;;;;;;5087988;28;20271;-85
2022/10/08 07:10:09;;;;;;;3.03;2.10;;;13.20;97.30;;;;;;5087241;28;20971;-83
2022/10/08 07:12:34;;;;;;;2.47;2.10;;;13.20;97.30;;;;;;5087888;28;20182;-84
2022/10/08 07:15:00;;;;;;;6.83;2.33;;;13.30;97.30;;;;;;5088408;28;20447;-84
2022/10/08 07:17:27;;;;;;;3.13;1.53;;;13.30;97.30;;;;;;5090970;28;20185;-83
2022/10/08 07:19:54;;;;;;;2.00;1.90;;;13.30;97.30;;;;;;5084923;28;20239;-84
2022/10/08 07:22:20;;;;;;;4.03;1.87;;;13.40;97.30;;;;;;5088398;28;20479;-86
2022/10/08 07:24:45;;;;;;;6.23;2.40;;;13.40;97.30;;;;;;5092484;28;20610;-84
2022/10/08 07:27:11;;;;;;;2.47;2.27;;;13.50;97.30;;;;;;5091170;28;20511;-80
2022/10/08 07:29:37;;;;;;;4.07;2.57;;;13.60;97.30;;;;;;5091551;28;20178;-83
2022/10/08 07:32:03;;;;;;;2.37;2.20;;;13.60;97.30;;;;;;5090297;28;20957;-81
2022/10/08 07:34:28;;;;;;;2.40;1.80;;;13.70;97.30;;;;;;5088719;28;20186;-78
2022/10/08 07:36:54;;;;;;;1.80;1.77;;;13.70;97.30;;;;;;5088574;28;20174;-79
2022/10/08 07:39:20;;;;;;;6.83;2.80;;;13.80;97.30;;;;;;5090711;28;20354;-84
2022/10/08 07:41:47;;;;;;;2.37;2.17;;;13.80;97.30;;;;;;5084621;28;20690;-84
2022/10/08 07:44:14;;;;;;;3.40;2.30;;;13.90;97.30;;;;;;5075596;28;20704;-79
2022/10/08 07:46:45;;;;;;;1.50;1.43;;;14.00;97.30;;;;;;5085246;28;20510;-84
2022/10/08 07:49:11;;;;;;;6.13;2.37;;;14.10;97.30;;;;;;5089370;28;20420;-85
2022/10/08 07:51:36;;;;;;;1.80;1.70;;;14.10;97.30;;;;;;5081538;28;20525;-85
2022/10/08 07:54:04;;;;;;;2.33;2.13;;;14.20;97.30;;;;;;5069927;28;20194;-85
2022/10/08 07:56:31;;;;;;;1.83;1.80;;;14.40;97.30;;;;;;5078445;28;20205;-86
2022/10/08 07:58:58;;;;;;;2.60;2.10;;;14.50;97.30;;;;;;5078586;28;20870;-84
2022/10/08 08:01:27;;;;;;;1.93;1.37;;;14.50;97.30;;;;;;5079447;28;20762;-82
2022/10/08 08:03:58;;;;;;;2.40;2.10;;;14.60;97.30;;;;;;5080785;28;20457;-80
2022/10/08 08:06:24;;;;;;;1.10;1.10;;;14.60;97.30;;;;;;5087303;28;20413;-85
2022/10/08 08:08:50;;;;;;;1.27;1.17;;;14.60;97.30;;;;;;5087298;28;20413;-84
2022/10/08 08:11:20;;;;;;;2.03;1.93;;;14.60;97.30;;;;;;5075092;28;20490;-83
2022/10/08 08:13:46;;;;;;;1.43;1.20;;;14.70;97.30;;;;;;5086384;28;20852;-85
2022/10/08 08:16:13;;;;;;;4.20;2.10;;;14.80;97.30;;;;;;5088125;28;20417;-84
2022/10/08 08:18:41;;;;;;;3.60;1.83;;;14.90;97.30;;;;;;5080428;28;20175;-81
2022/10/08 08:21:15;;;;;;;3.63;2.40;;;14.90;97.30;;;;;;5082384;28;20505;-85
2022/10/08 08:23:43;;;;;;;2.83;1.70;;;15.00;97.30;;;;;;5081310;28;20969;-81
2022/10/08 08:26:17;;;;;;;1.30;1.20;;;15.10;97.30;;;;;;5089631;28;20416;-83
2022/10/08 08:28:44;;;;;;;2.17;2.00;;;15.20;97.30;;;;;;5080210;28;20909;-83
2022/10/08 08:31:17;;;;;;;1.30;1.20;;;15.30;97.30;;;;;;5087846;28;20491;-84
2022/10/08 08:33:49;;;;;;;4.03;1.70;;;15.40;97.30;;;;;;5089215;28;20501;-85
2022/10/08 08:36:15;;;;;;;4.50;1.20;;;15.40;97.30;;;;;;5089134;28;20432;-84
2022/10/08 08:38:41;;;;;;;1.50;1.40;;;15.50;97.30;;;;;;5081342;28;21005;-80
2022/10/08 08:41:29;;;;;;;2.10;1.73;;;15.60;97.30;;;;;;5081955;28;20444;-84
2022/10/08 08:44:00;;;;;;;2.50;1.67;;;15.70;97.20;;;;;;5083300;28;20331;-80
2022/10/08 08:46:28;;;;;;;2.40;1.87;;;15.80;97.10;;;;;;5086942;28;20495;-82
2022/10/08 08:48:56;;;;;;;2.87;1.93;;;15.80;96.70;;;;;;5080689;28;20418;-86
2022/10/08 08:51:22;;;;;;;1.57;1.47;;;15.90;96.80;;;;;;5077199;28;20428;-84
2022/10/08 08:53:47;;;;;;;5.73;1.93;;;15.90;95.70;;;;;;5090014;28;20470;-81
2022/10/08 08:56:18;;;;;;;1.30;1.20;;;15.90;95.30;;;;;;5078662;28;20221;-86
2022/10/08 08:58:49;;;;;;;1.73;0.90;;;15.90;95.20;;;;;;5090265;28;20636;-82
2022/10/08 09:01:22;;;;;;;12.00;1.20;;;16.00;95.10;;;;;;5081088;28;20449;-83
2022/10/08 09:03:57;;;;;;;20.83;2.37;;;16.10;95.10;;;;;;5084061;28;20453;-83
2022/10/08 09:06:26;;;;;;;10.03;2.53;;;16.10;94.90;;;;;;5089947;28;20788;-85
2022/10/08 09:09:14;;;;;;;1.00;0.90;;;16.10;95.00;;;;;;5084739;28;20521;-85
2022/10/08 09:11:42;;;;;;;1.37;1.33;;;16.10;94.00;;;;;;5080016;28;20494;-83
2022/10/08 09:14:30;;;;;;;1.30;1.20;;;16.10;94.90;;;;;;5082714;28;20911;-86
2022/10/08 09:16:56;;;;;;;1.63;1.07;;;16.30;94.90;;;;;;5082207;28;20437;-84
2022/10/08 09:19:22;;;;;;;1.20;1.10;;;16.40;94.80;;;;;;5090232;28;20424;-84
2022/10/08 09:21:47;;;;;;;1.10;1.00;;;16.50;94.00;;;;;;5086201;28;20461;-78
2022/10/08 09:24:14;;;;;;;1.23;1.13;;;16.60;93.20;;;;;;5088884;28;20713;-80
2022/10/08 09:26:41;;;;;;;1.77;0.97;;;16.60;92.70;;;;;;5089916;28;20171;-81
2022/10/08 09:29:06;;;;;;;4.63;1.13;;;16.80;92.90;;;;;;5088496;28;20417;-85
2022/10/08 09:31:38;;;;;;;1.27;1.00;;;16.90;92.20;;;;;;5085704;28;20521;-85
2022/10/08 09:34:10;;;;;;;1.33;1.30;;;17.00;91.90;;;;;;5096009;28;20186;-84
2022/10/08 09:36:57;;;;;;;12.33;2.90;;;17.20;91.40;;;;;;5089052;28;20421;-81
2022/10/08 09:39:26;;;;;;;3.33;1.30;;;17.20;90.30;;;;;;5088250;28;20791;-84
2022/10/08 09:42:18;;;;;;;4.20;2.50;;;17.20;91.00;;;;;;5087584;28;20480;-85
2022/10/08 09:44:45;;;;;;;1.10;1.00;;;17.10;90.60;;;;;;5084346;28;20478;-85
2022/10/08 09:47:13;;;;;;;13.23;2.03;;;17.10;91.00;;;;;;5085072;28;20401;-80
2022/10/08 09:49:39;;;;;;;1.93;1.50;;;17.10;90.60;;;;;;5084845;28;20865;-83
2022/10/08 09:52:19;;;;;;;2.00;1.17;;;17.10;90.70;;;;;;5085782;28;20468;-81
2022/10/08 09:54:49;;;;;;;1.10;1.10;;;17.20;91.10;;;;;;5093055;28;20244;-79
2022/10/08 09:57:16;;;;;;;5.63;1.80;;;17.30;90.90;;;;;;5094549;28;20470;-79
2022/10/08 09:59:50;;;;;;;4.60;1.63;;;17.40;91.20;;;;;;5092289;28;20424;-84
2022/10/08 10:02:32;;;;;;;0.80;0.77;;;17.60;90.30;;;;;;5081457;28;20401;-84
2022/10/08 10:05:00;;;;;;;1.00;0.90;;;17.60;89.90;;;;;;5093750;28;20428;-81
2022/10/08 10:07:43;;;;;;;1.33;0.93;;;17.60;90.00;;;;;;5090157;28;20974;-83
2022/10/08 10:10:17;;;;;;;1.23;1.13;;;17.70;90.00;;;;;;5088951;28;20810;-83
2022/10/08 10:12:47;;;;;;;1.13;1.00;;;17.60;89.40;;;;;;5088091;28;20486;-81
2022/10/08 10:15:39;;;;;;;2.23;2.03;;;17.70;89.90;;;;;;5088133;28;20423;-81
2022/10/08 10:18:12;;;;;;;4.70;1.37;;;17.70;89.50;;;;;;5088733;28;20431;-84
2022/10/08 10:20:43;;;;;;;0.90;0.90;;;17.70;89.30;;;;;;5085478;28;20557;-78
2022/10/08 10:23:19;;;;;;;1.77;1.67;;;17.70;89.50;;;;;;5087834;28;20897;-80
2022/10/08 10:26:05;;;;;;;1.30;1.20;;;17.70;89.80;;;;;;5082242;28;20430;-78
2022/10/08 10:28:45;;;;;;;1.73;1.00;;;17.60;89.80;;;;;;5090910;28;20416;-77
2022/10/08 10:31:22;;;;;;;1.87;1.77;;;17.60;90.40;;;;;;5093055;28;20471;-84
2022/10/08 10:33:58;;;;;;;1.23;1.13;;;17.40;90.30;;;;;;5081696;28;20423;-78
2022/10/08 10:36:30;;;;;;;1.17;1.07;;;17.40;90.70;;;;;;5092795;28;20430;-84
2022/10/08 10:39:20;;;;;;;4.10;1.77;;;17.40;91.00;;;;;;5090750;28;20420;-85
2022/10/08 10:41:56;;;;;;;11.40;1.60;;;17.40;91.40;;;;;;5085169;28;20986;-80
2022/10/08 10:44:32;;;;;;;2.70;1.43;;;17.40;91.40;;;;;;5090792;28;20464;-83
2022/10/08 10:46:59;;;;;;;2.07;1.10;;;17.40;91.40;;;;;;5087488;28;20470;-79
2022/10/08 10:49:37;;;;;;;1.50;1.40;;;17.40;91.10;;;;;;5086194;28;20408;-83
2022/10/08 10:52:17;;;;;;;2.37;1.87;;;17.30;90.80;;;;;;5094676;22;20503;-79
2022/10/08 10:55:01;;;;;;;1.27;1.17;;;17.30;91.10;;;;;;5073979;28;20541;-84
2022/10/08 10:57:35;;;;;;;7.50;1.73;;;17.40;91.60;;;;;;5072214;28;20443;-80
2022/10/08 11:00:05;;;;;;;4.50;1.37;;;17.30;91.40;;;;;;5061038;28;20995;-83
2022/10/08 11:02:45;;;;;;;1.20;0.90;;;17.20;91.60;;;;;;5051490;28;20449;-78
2022/10/08 11:05:26;;;;;;;1.10;1.00;;;17.10;92.00;;;;;;5061877;28;20416;-83
2022/10/08 11:08:12;;;;;;;1.10;1.00;;;17.00;92.40;;;;;;5058177;28;20425;-84
2022/10/08 11:10:50;;;;;;;16.83;1.33;;;16.80;92.60;;;;;;5053531;28;20437;-78
2022/10/08 11:13:21;;;;;;;3.33;2.13;;;16.70;93.40;;;;;;5059033;28;20899;-80
2022/10/08 11:15:58;;;;;;;2.37;1.60;;;16.70;93.40;;;;;;5060004;28;20959;-78
2022/10/08 11:18:39;;;;;;;1.40;1.30;;;16.60;93.60;;;;;;5070042;28;20417;-82
2022/10/08 11:21:40;;;;;;;1.23;1.13;;;16.60;93.90;;;;;;5070656;28;20492;-84
2022/10/08 11:24:21;;;;;;;0.80;0.80;;;16.50;93.80;;;;;;5033307;28;20497;-78
2022/10/08 11:26:59;;;;;;;1.00;0.90;;;16.40;94.20;;;;;;5071221;28;20517;-80
2022/10/08 11:30:06;;;;;;;1.13;1.03;;;16.40;94.30;;;;;;5058482;28;20422;-81
2022/10/08 11:32:33;;;;;;;1.30;1.20;;;16.30;94.40;;;;;;5055095;28;20429;-84
2022/10/08 11:35:10;;;;;;;1.20;1.10;;;16.20;94.70;;;;;;5052932;28;20928;-80
2022/10/08 11:38:05;;;;;;;1.57;1.30;;;16.20;94.60;;;;;;5050736;28;20442;-84
2022/10/08 11:40:51;;;;;;;1.20;1.10;;;16.20;94.90;;;;;;5057491;28;20441;-79
2022/10/08 11:43:28;;;;;;;1.20;1.10;;;16.20;95.10;;;;;;5070599;28;20441;-79
2022/10/08 11:46:30;;;;;;;36.13;1.40;;;16.10;94.80;;;;;;5045005;28;20809;-87
2022/10/08 11:49:16;;;;;;;1.30;1.20;;;16.10;94.60;;;;;;5054366;28;20559;-86
2022/10/08 11:51:51;;;;;;;1.50;1.40;;;15.90;94.10;;;;;;5015518;28;20456;-80
2022/10/08 11:54:33;;;;;;;0.97;0.93;;;15.80;94.40;;;;;;5055149;28;20417;-84
2022/10/08 11:57:19;;;;;;;1.20;1.10;;;15.70;94.60;;;;;;5058326;28;20459;-83
2022/10/08 11:59:55;;;;;;;3.20;1.30;;;15.70;94.90;;;;;;5051277;28;20475;-84
2022/10/08 12:02:30;;;;;;;7.20;1.60;;;15.70;95.40;;;;;;5053584;28;20836;-79
2022/10/08 12:05:34;;;;;;;1.20;1.10;;;15.70;95.90;;;;;;5067433;28;20512;-84
2022/10/08 12:08:02;;;;;;;1.03;0.97;;;15.60;96.30;;;;;;5074799;28;20413;-84
2022/10/08 12:10:33;;;;;;;1.20;1.00;;;15.60;96.50;;;;;;5070810;28;20476;-77
2022/10/08 12:13:22;;;;;;;5.53;1.33;;;15.50;96.60;;;;;;5066815;28;20550;-85
2022/10/08 12:15:52;;;;;;;1.07;1.03;;;15.40;96.80;;;;;;5075318;28;20926;-86
2022/10/08 12:18:22;;;;;;;2.80;1.30;;;15.40;97.10;;;;;;5057361;28;20446;-87
2022/10/08 12:21:19;;;;;;;1.23;1.13;;;15.50;97.00;;;;;;5068788;22;20493;-79
2022/10/08 12:24:26;;;;;;;4.73;1.40;;;15.60;97.10;;;;;;5062941;28;20827;-83
2022/10/08 12:31:09;;;;;;;;;;;;;;;;;;;;;
2022/10/08 12:33:38;;;;;;;0.87;0.80;;;15.50;96.90;;;;;;5088469;28;20414;-81
2022/10/08 12:37:04;;;;;;;1.77;1.30;;;15.60;97.00;;;;;;5068390;28;20424;-83
2022/10/08 12:39:41;;;;;;;2.23;1.67;;;15.60;97.20;;;;;;5082312;28;20445;-84
2022/10/08 12:42:18;;;;;;;1.00;0.90;;;15.60;97.10;;;;;;5063856;28;20451;-83
2022/10/08 12:44:53;;;;;;;1.30;1.20;;;15.60;97.30;;;;;;5062623;28;20433;-79
2022/10/08 12:47:27;;;;;;;4.73;1.30;;;15.60;97.30;;;;;;5068304;28;20426;-83
2022/10/08 12:50:17;;;;;;;3.07;1.23;;;15.70;97.30;;;;;;5067499;28;20422;-84
2022/10/08 12:52:43;;;;;;;1.83;1.10;;;15.70;97.10;;;;;;5061147;28;20417;-78
2022/10/08 12:55:16;;;;;;;1.27;1.17;;;15.70;97.00;;;;;;5059356;28;20934;-84
2022/10/08 12:57:44;;;;;;;1.47;1.10;;;15.70;96.80;;;;;;5070311;28;20456;-83
2022/10/08 13:00:22;;;;;;;1.30;1.20;;;15.60;96.80;;;;;;5068408;28;20442;-83
2022/10/08 13:03:11;;;;;;;0.90;0.70;;;15.60;97.20;;;;;;5061255;28;20461;-80
2022/10/08 13:05:39;;;;;;;1.43;1.00;;;15.60;97.30;;;;;;5063344;28;20551;-78
2022/10/08 13:08:33;;;;;;;1.43;1.20;;;15.60;97.10;;;;;;5056440;28;20417;-83
2022/10/08 13:11:17;;;;;;;1.00;0.90;;;15.60;97.10;;;;;;5068403;22;20554;-86
2022/10/08 13:14:16;;;;;;;0.90;0.90;;;15.60;96.80;;;;;;5064813;28;21002;-81
2022/10/08 13:16:57;;;;;;;1.00;0.90;;;15.60;96.20;;;;;;5030545;28;20493;-83
2022/10/08 13:19:47;;;;;;;1.00;1.00;;;15.60;95.70;;;;;;5026600;28;20428;-86
2022/10/08 13:22:25;;;;;;;2.40;1.20;;;15.60;95.90;;;;;;5040170;28;20430;-79